Time;durP1;ratioP1;P1;durP2;ratioP2;P2;SDS_P1;SDS_P2;PMS_P1;PMS_P2;Temp;Humidity;BMP_temperature;BMP_pressure;BME280_temperature;BME280_humidity;BME280_pressure;Samples;Min_cycle;Max_cycle;Signal;HPM_P1;HPM_P2
2022/02/06 00:01:20;;;;;;;7.67;0.97;;;5.80;1.00;;;;;;5051477;28;20171;-73
2022/02/06 00:03:57;;;;;;;1.00;0.50;;;5.90;1.00;;;;;;5050825;28;20188;-74
2022/02/06 00:06:23;;;;;;;5.10;1.10;;;5.80;1.00;;;;;;5040688;28;20191;-75
2022/02/06 00:08:49;;;;;;;5.10;1.10;;;5.80;1.00;;;;;;5047826;28;20430;-75
2022/02/06 00:11:28;;;;;;;1.00;0.70;;;5.80;1.00;;;;;;5040611;28;20231;-74
2022/02/06 00:13:56;;;;;;;3.90;1.40;;;;;;;;;;5043403;28;20644;-75
2022/02/06 00:16:22;;;;;;;1.87;0.90;;;5.80;1.00;;;;;;5044751;28;20418;-75
2022/02/06 00:18:48;;;;;;;4.70;0.90;;;5.80;1.00;;;;;;5048603;28;20896;-75
2022/02/06 00:21:17;;;;;;;3.70;1.23;;;5.80;1.00;;;;;;5042333;28;20426;-74
2022/02/06 00:23:46;;;;;;;1.70;1.07;;;5.80;1.00;;;;;;5039812;28;20173;-74
2022/02/06 00:28:53;;;;;;;9.07;1.23;;;5.80;1.00;;;;;;5035428;28;20553;-74
2022/02/06 00:31:33;;;;;;;1.57;0.90;;;5.80;1.00;;;;;;5033779;28;20462;-74
2022/02/06 00:34:30;;;;;;;0.90;0.60;;;;;;;;;;5039739;28;20413;-73
2022/02/06 00:39:14;;;;;;;3.57;1.40;;;5.90;1.00;;;;;;5040082;28;20997;-74
2022/02/06 00:41:40;;;;;;;2.63;1.30;;;;;;;;;;5050691;28;20670;-74
2022/02/06 00:44:07;;;;;;;6.70;0.93;;;5.90;1.00;;;;;;5044652;28;20464;-74
2022/02/06 00:46:39;;;;;;;2.10;0.90;;;5.90;1.00;;;;;;5052337;28;20452;-74
2022/02/06 00:49:16;;;;;;;2.37;0.80;;;5.90;1.00;;;;;;5040603;28;20429;-74
2022/02/06 00:54:16;;;;;;;9.73;0.93;;;5.90;1.00;;;;;;5062675;28;20731;-75
2022/02/06 00:56:42;;;;;;;3.50;1.53;;;5.90;1.00;;;;;;5070763;28;20453;-74
2022/02/06 00:59:10;;;;;;;6.27;1.33;;;6.00;1.00;;;;;;5040626;28;20446;-75
2022/02/06 01:01:53;;;;;;;5.40;1.10;;;6.00;1.00;;;;;;5045627;28;20256;-75
2022/02/06 01:04:19;;;;;;;3.33;0.90;;;6.00;1.00;;;;;;5055446;28;20429;-75
2022/02/06 01:06:46;;;;;;;1.67;0.80;;;6.00;1.00;;;;;;5053565;28;20771;-74
2022/02/06 01:09:12;;;;;;;1.33;0.97;;;6.00;1.00;;;;;;5041171;28;20426;-74
2022/02/06 01:11:39;;;;;;;3.13;1.00;;;6.00;1.00;;;;;;5042750;28;20930;-74
2022/02/06 01:14:19;;;;;;;1.13;0.97;;;6.00;1.00;;;;;;5048270;28;20421;-73
2022/02/06 01:20:07;;;;;;;0.70;0.70;;;6.00;1.00;;;;;;5014748;28;20407;-74
2022/02/06 01:22:35;;;;;;;6.10;1.43;;;6.00;1.00;;;;;;5012906;28;20431;-74
2022/02/06 01:25:20;;;;;;;1.47;1.03;;;6.10;1.00;;;;;;5014865;28;20478;-74
2022/02/06 01:27:55;;;;;;;0.87;0.87;;;6.10;1.00;;;;;;5007095;28;20866;-74
2022/02/06 01:30:27;;;;;;;1.23;0.80;;;6.20;1.00;;;;;;5001687;28;20684;-73
2022/02/06 01:33:01;;;;;;;3.77;1.07;;;6.20;1.00;;;;;;5005578;28;20416;-74
2022/02/06 01:35:47;;;;;;;1.20;1.10;;;6.20;1.00;;;;;;4999798;28;20494;-74
2022/02/06 01:38:22;;;;;;;2.20;0.87;;;6.20;1.00;;;;;;5014512;28;20903;-75
2022/02/06 01:40:59;;;;;;;1.10;1.00;;;6.20;1.00;;;;;;5013888;28;20804;-75
2022/02/06 01:43:32;;;;;;;2.53;1.47;;;6.20;1.00;;;;;;5001353;28;20431;-75
2022/02/06 01:46:22;;;;;;;5.90;1.20;;;6.10;1.00;;;;;;5007779;28;20936;-75
2022/02/06 01:57:26;;;;;;;4.83;0.90;;;6.20;1.00;;;;;;5010014;28;20446;-75
2022/02/06 02:13:43;;;;;;;1.87;1.53;;;6.10;1.00;;;;;;5045608;28;20417;-74
2022/02/06 02:48:17;;;;;;;5.27;1.30;;;6.30;1.00;;;;;;5044403;28;20494;-74
2022/02/06 02:50:54;;;;;;;3.67;1.80;;;6.20;1.00;;;;;;5045141;28;20482;-73
2022/02/06 02:53:38;;;;;;;3.13;1.10;;;6.30;1.00;;;;;;5046312;28;20475;-74
2022/02/06 03:01:55;;;;;;;1.30;1.20;;;6.40;1.00;;;;;;5011128;28;20839;-75
2022/02/06 03:04:21;;;;;;;2.40;0.70;;;6.40;1.00;;;;;;4999101;28;20955;-75
2022/02/06 03:06:47;;;;;;;1.90;1.30;;;6.40;1.00;;;;;;5004341;28;20424;-73
2022/02/06 03:09:13;;;;;;;5.77;1.63;;;6.40;1.00;;;;;;5004325;28;20246;-74
2022/02/06 03:11:39;;;;;;;0.80;0.80;;;6.40;1.00;;;;;;4994853;28;20439;-74
2022/02/06 03:14:13;;;;;;;0.73;0.73;;;6.40;1.00;;;;;;4986269;28;20432;-74
2022/02/06 03:16:47;;;;;;;1.07;1.00;;;6.40;1.00;;;;;;5012675;28;20534;-74
2022/02/06 03:19:17;;;;;;;9.10;1.47;;;6.30;1.00;;;;;;5003541;28;20428;-73
2022/02/06 03:21:44;;;;;;;4.20;1.60;;;6.40;1.00;;;;;;5012753;28;20459;-73
2022/02/06 03:26:42;;;;;;;5.70;1.17;;;6.40;1.00;;;;;;5011740;28;20424;-74
2022/02/06 03:29:08;;;;;;;5.97;1.70;;;6.40;1.00;;;;;;5009882;28;20486;-73
2022/02/06 03:31:34;;;;;;;2.70;1.07;;;6.40;1.00;;;;;;5000588;28;20907;-74
2022/02/06 03:34:00;;;;;;;2.13;1.10;;;6.40;1.00;;;;;;4999742;28;20169;-73
2022/02/06 03:36:26;;;;;;;4.47;0.97;;;;;;;;;;5008344;28;20542;-74
2022/02/06 03:38:53;;;;;;;2.03;1.00;;;6.40;1.00;;;;;;5053506;28;20642;-73
2022/02/06 03:41:24;;;;;;;2.57;1.27;;;6.50;1.00;;;;;;5045921;28;20512;-74
2022/02/06 03:46:29;;;;;;;2.10;1.17;;;6.50;1.00;;;;;;5037312;28;20446;-73
2022/02/06 03:49:13;;;;;;;2.40;1.27;;;6.50;1.00;;;;;;5042139;28;20272;-73
2022/02/06 03:51:40;;;;;;;5.63;1.70;;;6.50;1.00;;;;;;5045787;28;20434;-74
2022/02/06 03:54:11;;;;;;;3.00;1.10;;;6.50;1.00;;;;;;5050253;28;20824;-75
2022/02/06 03:56:39;;;;;;;6.70;0.93;;;6.50;1.00;;;;;;5035121;28;20403;-75
2022/02/06 03:59:10;;;;;;;1.23;1.00;;;6.50;1.00;;;;;;5037448;28;20497;-75
2022/02/06 04:01:36;;;;;;;2.20;1.00;;;6.50;1.00;;;;;;5047425;28;20407;-76
2022/02/06 04:04:02;;;;;;;1.63;1.07;;;6.50;1.00;;;;;;5042184;28;20421;-75
2022/02/06 04:06:29;;;;;;;2.30;1.03;;;6.50;1.00;;;;;;5040230;28;20191;-75
2022/02/06 04:08:58;;;;;;;8.40;1.27;;;6.50;1.00;;;;;;5044118;28;20770;-75
2022/02/06 04:11:44;;;;;;;1.60;1.20;;;6.50;1.00;;;;;;5039721;28;20442;-75
2022/02/06 04:14:21;;;;;;;4.13;1.50;;;6.50;1.00;;;;;;5046600;28;20443;-75
2022/02/06 04:16:54;;;;;;;3.73;0.97;;;;;;;;;;5053482;28;20458;-75
2022/02/06 04:19:25;;;;;;;1.63;0.83;;;6.50;1.00;;;;;;5047874;28;20463;-75
2022/02/06 04:21:52;;;;;;;1.00;0.73;;;6.50;1.00;;;;;;5033799;28;20402;-75
2022/02/06 04:24:24;;;;;;;1.13;0.77;;;6.50;1.00;;;;;;5036292;28;20858;-75
2022/02/06 04:26:52;;;;;;;1.37;1.00;;;6.50;1.00;;;;;;5047036;28;20414;-75
2022/02/06 04:29:18;;;;;;;2.10;1.20;;;6.50;1.00;;;;;;5053490;28;20417;-75
2022/02/06 04:31:52;;;;;;;1.50;1.23;;;6.50;1.00;;;;;;5039815;28;20417;-75
2022/02/06 04:34:22;;;;;;;1.73;1.17;;;6.50;1.00;;;;;;5042543;28;20422;-75
2022/02/06 04:50:09;;;;;;;0.50;0.50;;;6.50;1.00;;;;;;5043419;28;20465;-74
2022/02/06 04:53:18;;;;;;;1.70;0.97;;;6.50;1.00;;;;;;5044667;28;20444;-74
2022/02/06 05:15:08;;;;;;;1.07;0.97;;;6.60;1.00;;;;;;5005459;28;20420;-75
2022/02/06 05:17:55;;;;;;;3.00;1.30;;;;;;;;;;5011544;28;20428;-75
2022/02/06 05:28:31;;;;;;;1.53;0.73;;;6.60;1.00;;;;;;5006030;28;20423;-75
2022/02/06 05:31:13;;;;;;;0.97;0.97;;;6.60;1.00;;;;;;5013873;28;20471;-76
2022/02/06 05:34:04;;;;;;;3.87;1.27;;;6.70;1.00;;;;;;5001589;28;20434;-77
2022/02/06 05:36:40;;;;;;;2.30;1.30;;;6.70;1.00;;;;;;5015317;28;20515;-77
2022/02/06 05:39:06;;;;;;;6.20;1.10;;;6.70;1.00;;;;;;5047055;28;20785;-77
2022/02/06 05:41:34;;;;;;;0.70;0.70;;;6.70;1.00;;;;;;5051130;28;20424;-76
2022/02/06 05:44:05;;;;;;;2.93;0.90;;;6.80;1.00;;;;;;5041734;28;20214;-76
2022/02/06 05:46:40;;;;;;;2.57;0.93;;;6.80;1.00;;;;;;5043677;28;20407;-76
2022/02/06 05:49:11;;;;;;;1.20;1.10;;;6.80;1.00;;;;;;5044032;28;20802;-76
2022/02/06 05:51:47;;;;;;;3.33;0.90;;;6.80;1.00;;;;;;5055063;28;20568;-76
2022/02/06 05:54:16;;;;;;;1.27;0.80;;;6.90;1.00;;;;;;5056063;28;20501;-75
2022/02/06 05:56:53;;;;;;;0.70;0.70;;;6.90;1.00;;;;;;5055205;28;20418;-76
2022/02/06 05:59:22;;;;;;;5.63;1.00;;;6.80;1.00;;;;;;5055904;28;20437;-75
2022/02/06 06:01:58;;;;;;;1.67;1.00;;;6.80;1.00;;;;;;5042595;28;20925;-75
2022/02/06 06:04:34;;;;;;;3.00;1.70;;;6.90;1.00;;;;;;5042661;28;20878;-75
2022/02/06 06:07:10;;;;;;;3.60;0.90;;;;;;;;;;5054372;28;20414;-75
2022/02/06 06:09:40;;;;;;;0.73;0.73;;;6.80;1.00;;;;;;5042784;28;20978;-75
2022/02/06 06:12:07;;;;;;;3.90;0.70;;;6.80;1.00;;;;;;5051282;28;20423;-75
2022/02/06 06:14:33;;;;;;;3.10;0.93;;;6.70;1.00;;;;;;5052679;28;20418;-76
2022/02/06 06:16:59;;;;;;;1.73;1.10;;;6.70;1.00;;;;;;5042553;28;20416;-75
2022/02/06 06:19:25;;;;;;;1.43;0.77;;;6.70;1.00;;;;;;5039018;28;20195;-75
2022/02/06 06:21:58;;;;;;;5.40;0.80;;;6.80;1.00;;;;;;5054024;28;20223;-76
2022/02/06 06:24:25;;;;;;;6.43;1.20;;;6.80;1.00;;;;;;5038361;28;20419;-74
2022/02/06 06:26:52;;;;;;;1.20;1.00;;;6.80;1.00;;;;;;5050681;28;20423;-74
2022/02/06 06:29:18;;;;;;;1.55;0.90;;;6.80;1.00;;;;;;5044571;28;20430;-74
2022/02/06 06:31:44;;;;;;;1.37;1.13;;;;;;;;;;5045530;28;20411;-74
2022/02/06 06:34:10;;;;;;;3.17;1.20;;;6.80;1.00;;;;;;5039452;28;20168;-74
2022/02/06 06:36:36;;;;;;;3.60;0.90;;;6.80;1.00;;;;;;5043245;28;20481;-74
2022/02/06 06:39:06;;;;;;;2.47;0.70;;;6.80;1.00;;;;;;5055647;28;20437;-74
2022/02/06 06:41:32;;;;;;;3.37;1.00;;;6.80;1.00;;;;;;5049973;28;21020;-74
2022/02/06 06:43:58;;;;;;;2.93;0.57;;;6.80;1.00;;;;;;5046147;28;20518;-74
2022/02/06 06:46:24;;;;;;;1.70;0.77;;;6.80;1.00;;;;;;5048989;28;20428;-74
2022/02/06 06:48:50;;;;;;;2.60;1.37;;;6.70;1.00;;;;;;5045207;28;20944;-74
2022/02/06 06:51:15;;;;;;;1.13;1.00;;;6.80;1.00;;;;;;5040360;28;20743;-74
2022/02/06 06:53:44;;;;;;;2.43;1.17;;;6.80;1.00;;;;;;5045002;28;20442;-74
2022/02/06 06:56:16;;;;;;;0.87;0.70;;;6.80;1.00;;;;;;5046233;28;20169;-74
2022/02/06 06:58:47;;;;;;;4.13;0.80;;;6.70;1.00;;;;;;5045890;28;20410;-74
2022/02/06 07:04:01;;;;;;;1.13;1.03;;;6.80;1.00;;;;;;5049465;28;20479;-74
2022/02/06 07:06:34;;;;;;;1.03;0.70;;;6.80;1.00;;;;;;5046428;28;20426;-74
2022/02/06 07:09:10;;;;;;;0.60;0.60;;;6.80;1.00;;;;;;5034965;28;20427;-75
2022/02/06 07:11:40;;;;;;;1.07;0.90;;;6.80;1.00;;;;;;5042881;28;20856;-75
2022/02/06 07:14:10;;;;;;;3.70;0.97;;;6.80;1.00;;;;;;5054918;28;20873;-76
2022/02/06 07:16:40;;;;;;;4.07;0.73;;;6.90;1.00;;;;;;5035928;28;20875;-76
2022/02/06 07:19:10;;;;;;;1.57;1.27;;;6.90;1.00;;;;;;5051167;28;20454;-75
2022/02/06 07:21:40;;;;;;;7.03;1.30;;;6.80;1.00;;;;;;5034852;28;20917;-76
2022/02/06 07:24:06;;;;;;;3.17;1.17;;;6.90;1.00;;;;;;5035270;28;20427;-74
2022/02/06 07:26:33;;;;;;;4.20;0.90;;;;;;;;;;5041167;28;20878;-74
2022/02/06 07:29:01;;;;;;;3.03;0.90;;;6.90;1.00;;;;;;5048527;28;20422;-74
2022/02/06 07:31:29;;;;;;;3.57;0.97;;;7.00;1.00;;;;;;5054287;28;20972;-74
2022/02/06 07:33:54;;;;;;;4.13;1.40;;;7.00;1.00;;;;;;5042070;28;20999;-74
2022/02/06 07:36:21;;;;;;;2.40;0.87;;;7.00;1.00;;;;;;5051505;28;20522;-74
2022/02/06 07:38:52;;;;;;;1.17;0.70;;;6.90;1.00;;;;;;5041375;28;20450;-74
2022/02/06 07:41:18;;;;;;;3.03;0.80;;;7.00;1.00;;;;;;5043246;28;21056;-73
2022/02/06 07:43:46;;;;;;;4.30;0.87;;;7.00;1.00;;;;;;5045149;28;20520;-74
2022/02/06 07:46:14;;;;;;;1.77;0.90;;;7.00;1.00;;;;;;5038396;28;20183;-74
2022/02/06 07:48:40;;;;;;;10.57;0.70;;;7.00;1.00;;;;;;5036127;28;20786;-74
2022/02/06 07:51:07;;;;;;;3.37;0.60;;;;;;;;;;5041894;28;20463;-73
2022/02/06 07:53:33;;;;;;;0.93;0.70;;;7.00;1.00;;;;;;5034079;28;20945;-74
2022/02/06 07:55:58;;;;;;;0.97;0.80;;;7.10;1.00;;;;;;5045980;28;20434;-74
2022/02/06 07:58:25;;;;;;;3.10;1.10;;;7.10;1.00;;;;;;5047835;28;20177;-74
2022/02/06 08:00:52;;;;;;;2.07;0.80;;;7.10;1.00;;;;;;5042557;28;20168;-74
2022/02/06 08:03:18;;;;;;;2.10;1.03;;;7.10;1.00;;;;;;5047321;28;20518;-74
2022/02/06 08:05:46;;;;;;;1.60;0.90;;;7.10;1.00;;;;;;5045719;28;20808;-73
2022/02/06 08:08:14;;;;;;;7.53;0.93;;;7.20;1.00;;;;;;5046878;28;20188;-74
2022/02/06 08:10:41;;;;;;;0.60;0.60;;;7.20;1.00;;;;;;5046175;28;20468;-76
2022/02/06 08:13:27;;;;;;;0.80;0.77;;;7.20;1.00;;;;;;5053908;28;20511;-75
2022/02/06 08:15:54;;;;;;;1.53;0.60;;;7.30;1.00;;;;;;5036192;28;20802;-76
2022/02/06 08:18:20;;;;;;;2.50;0.97;;;7.30;1.00;;;;;;5043526;28;20413;-76
2022/02/06 08:20:46;;;;;;;0.90;0.90;;;7.20;1.00;;;;;;5046127;28;20796;-76
2022/02/06 08:23:14;;;;;;;1.57;0.70;;;7.20;1.00;;;;;;5043238;28;20454;-75
2022/02/06 08:25:39;;;;;;;1.67;0.63;;;7.20;1.00;;;;;;5040514;28;20749;-75
2022/02/06 08:28:16;;;;;;;1.00;0.83;;;7.10;1.00;;;;;;5044034;28;20418;-75
2022/02/06 08:30:43;;;;;;;0.57;0.57;;;7.10;1.00;;;;;;5045966;28;20530;-76
2022/02/06 08:33:10;;;;;;;2.17;0.87;;;7.10;1.00;;;;;;5044941;28;20418;-76
2022/02/06 08:35:36;;;;;;;1.70;0.90;;;7.10;1.00;;;;;;5050318;28;20761;-74
2022/02/06 08:38:01;;;;;;;3.03;0.70;;;7.10;1.00;;;;;;5041146;28;20458;-76
2022/02/06 08:40:27;;;;;;;3.20;1.07;;;7.20;1.00;;;;;;5047076;28;20593;-75
2022/02/06 08:42:53;;;;;;;2.10;0.93;;;7.20;1.00;;;;;;5044389;28;20207;-75
2022/02/06 08:45:23;;;;;;;1.30;0.90;;;7.20;1.00;;;;;;5066370;28;20188;-75
2022/02/06 08:47:50;;;;;;;1.07;0.67;;;;;;;;;;5053503;28;20209;-75
2022/02/06 08:50:16;;;;;;;0.70;0.70;;;7.30;1.00;;;;;;5037416;28;20817;-75
2022/02/06 08:52:42;;;;;;;2.30;0.80;;;7.30;1.00;;;;;;5039459;28;20418;-75
2022/02/06 08:55:12;;;;;;;1.23;0.57;;;7.40;1.00;;;;;;5046986;28;20421;-75
2022/02/06 08:57:44;;;;;;;3.40;0.63;;;7.20;1.00;;;;;;5041061;28;20187;-76
2022/02/06 09:00:11;;;;;;;3.70;0.70;;;7.20;1.00;;;;;;5047086;28;20840;-75
2022/02/06 09:02:53;;;;;;;2.23;0.90;;;7.20;1.00;;;;;;5043844;28;20460;-75
2022/02/06 09:05:24;;;;;;;3.50;1.00;;;7.20;1.00;;;;;;5045227;28;20426;-74
2022/02/06 09:07:50;;;;;;;1.23;0.70;;;;;;;;;;5056688;28;20881;-75
2022/02/06 09:10:19;;;;;;;0.80;0.60;;;7.10;1.00;;;;;;5053271;28;20490;-75
2022/02/06 09:12:51;;;;;;;2.93;0.87;;;7.10;1.00;;;;;;5050241;28;20415;-76
2022/02/06 09:15:18;;;;;;;1.63;0.80;;;7.10;1.00;;;;;;5042596;28;20427;-75
2022/02/06 09:17:46;;;;;;;1.33;0.50;;;7.10;1.00;;;;;;5057129;28;20414;-76
2022/02/06 09:20:17;;;;;;;0.80;0.77;;;7.10;1.00;;;;;;5044701;28;20419;-76
2022/02/06 09:23:04;;;;;;;1.90;0.80;;;7.10;1.00;;;;;;5045463;28;20418;-75
2022/02/06 09:25:30;;;;;;;0.60;0.60;;;;;;;;;;5046793;28;20498;-75
2022/02/06 09:27:56;;;;;;;1.63;0.83;;;7.10;1.00;;;;;;5047995;28;20402;-75
2022/02/06 09:30:26;;;;;;;0.50;0.50;;;7.10;1.00;;;;;;5051764;28;20501;-75
2022/02/06 09:35:23;;;;;;;0.73;0.60;;;7.10;1.00;;;;;;5046839;28;20473;-75
2022/02/06 09:37:50;;;;;;;4.30;0.67;;;7.20;1.00;;;;;;5052676;28;20434;-75
2022/02/06 09:40:16;;;;;;;3.00;0.80;;;7.20;1.00;;;;;;5047297;28;20428;-74
2022/02/06 09:42:50;;;;;;;1.03;0.80;;;7.30;1.00;;;;;;5050538;28;20502;-74
2022/02/06 09:45:16;;;;;;;0.80;0.70;;;7.20;1.00;;;;;;5042893;28;20979;-74
2022/02/06 09:47:43;;;;;;;0.80;0.60;;;7.30;1.00;;;;;;5041275;28;20427;-74
2022/02/06 09:50:09;;;;;;;1.13;1.03;;;7.20;1.00;;;;;;5048873;28;20490;-74
2022/02/06 09:52:38;;;;;;;0.40;0.40;;;7.30;1.00;;;;;;5048240;28;20477;-72
2022/02/06 09:55:15;;;;;;;0.80;0.73;;;7.30;1.00;;;;;;5053806;28;20501;-74
2022/02/06 09:57:53;;;;;;;1.23;0.60;;;7.20;1.00;;;;;;5044321;28;20456;-73
2022/02/06 10:00:21;;;;;;;1.40;0.77;;;7.20;1.00;;;;;;5036146;28;20450;-73
2022/02/06 10:02:51;;;;;;;0.77;0.70;;;7.20;1.00;;;;;;5054403;28;20451;-73
2022/02/06 10:05:17;;;;;;;0.80;0.80;;;7.30;1.00;;;;;;5036544;28;20430;-73
2022/02/06 10:08:15;;;;;;;1.83;0.70;;;7.20;1.00;;;;;;5035746;28;20423;-74
2022/02/06 10:11:06;;;;;;;0.50;0.50;;;7.20;1.00;;;;;;4983596;28;20916;-74
2022/02/06 10:13:42;;;;;;;1.53;0.60;;;7.30;1.00;;;;;;4989232;28;20467;-74
2022/02/06 10:16:13;;;;;;;1.53;0.73;;;7.30;1.00;;;;;;4980699;28;20772;-73
2022/02/06 10:18:39;;;;;;;5.43;0.70;;;7.40;1.00;;;;;;4986567;28;20515;-74
2022/02/06 10:21:07;;;;;;;0.43;0.43;;;7.40;1.00;;;;;;4981996;28;20512;-73
2022/02/06 10:26:08;;;;;;;1.00;0.60;;;7.20;1.00;;;;;;4979728;28;20523;-74
2022/02/06 10:31:06;;;;;;;7.50;0.90;;;7.20;1.00;;;;;;4985452;28;20899;-73
2022/02/06 10:33:52;;;;;;;1.20;0.70;;;7.30;1.00;;;;;;4985431;28;20430;-73
2022/02/06 10:36:30;;;;;;;2.03;0.67;;;7.20;1.00;;;;;;4968375;28;21036;-73
2022/02/06 10:39:05;;;;;;;0.67;0.67;;;7.20;1.00;;;;;;4992686;28;20455;-73
2022/02/06 10:41:32;;;;;;;1.90;0.70;;;7.20;1.00;;;;;;4981107;28;20625;-75
2022/02/06 10:44:02;;;;;;;1.17;0.67;;;7.20;1.00;;;;;;4978900;28;20495;-75
2022/02/06 10:46:31;;;;;;;0.93;0.90;;;7.20;1.00;;;;;;4993328;28;20429;-75
2022/02/06 10:49:02;;;;;;;0.70;0.70;;;7.30;1.00;;;;;;5036503;28;20424;-75
2022/02/06 10:51:39;;;;;;;6.00;1.20;;;7.30;1.00;;;;;;5048222;28;20569;-75
2022/02/06 10:54:12;;;;;;;1.33;0.70;;;7.30;1.00;;;;;;5036559;28;20502;-76
2022/02/06 10:57:10;;;;;;;0.43;0.43;;;7.30;1.00;;;;;;5041051;28;20407;-76
2022/02/06 10:59:53;;;;;;;0.50;0.50;;;7.30;1.00;;;;;;5053184;28;20529;-76
2022/02/06 11:02:30;;;;;;;2.57;0.70;;;7.40;1.00;;;;;;5053542;28;20422;-76
2022/02/06 11:05:21;;;;;;;0.67;0.67;;;7.40;1.00;;;;;;5048245;28;20446;-76
2022/02/06 11:08:00;;;;;;;0.87;0.67;;;7.40;1.00;;;;;;5048525;28;20769;-76
2022/02/06 11:10:31;;;;;;;3.43;0.63;;;7.50;1.00;;;;;;5043334;28;20945;-76
2022/02/06 11:13:16;;;;;;;1.23;0.73;;;7.60;1.00;;;;;;5048511;28;20414;-73
2022/02/06 11:15:46;;;;;;;0.93;0.67;;;7.60;1.00;;;;;;5050344;28;20518;-73
2022/02/06 11:18:21;;;;;;;1.47;1.00;;;7.60;1.00;;;;;;5045903;28;20407;-73
2022/02/06 11:20:54;;;;;;;0.57;0.57;;;7.70;1.00;;;;;;5036173;28;20777;-74
2022/02/06 11:23:20;;;;;;;0.63;0.60;;;7.80;1.00;;;;;;5033602;28;20778;-74
2022/02/06 11:26:06;;;;;;;0.80;0.80;;;7.70;1.00;;;;;;5041023;28;20414;-73
2022/02/06 11:28:32;;;;;;;1.87;0.90;;;7.70;1.00;;;;;;5038286;28;20230;-76
2022/02/06 11:30:58;;;;;;;2.20;1.07;;;7.60;1.00;;;;;;5035070;28;20508;-77
2022/02/06 11:33:35;;;;;;;0.80;0.80;;;7.60;1.00;;;;;;5034664;28;20502;-76
2022/02/06 11:36:12;;;;;;;1.70;0.70;;;7.50;1.00;;;;;;5044066;28;20770;-76
2022/02/06 11:45:17;;;;;;;1.33;0.70;;;7.10;1.00;;;;;;5006109;28;20827;-73
2022/02/06 11:47:55;;;;;;;1.70;0.70;;;7.10;1.00;;;;;;5011410;28;20480;-73
2022/02/06 11:50:21;;;;;;;0.97;0.80;;;7.00;1.00;;;;;;5004633;28;20453;-73
2022/02/06 11:52:58;;;;;;;1.67;0.73;;;7.00;1.00;;;;;;4992222;28;20451;-73
2022/02/06 11:55:37;;;;;;;0.73;0.50;;;6.90;1.00;;;;;;5003176;28;20942;-73
2022/02/06 11:58:30;;;;;;;1.50;0.70;;;6.90;1.00;;;;;;5004598;28;20427;-73
2022/02/06 12:01:07;;;;;;;0.60;0.60;;;6.80;1.00;;;;;;5010329;28;20522;-73
2022/02/06 12:03:53;;;;;;;0.50;0.50;;;6.80;1.00;;;;;;5003193;28;20421;-73
2022/02/06 12:06:20;;;;;;;0.70;0.57;;;6.80;1.00;;;;;;5000752;28;20946;-73
2022/02/06 12:08:58;;;;;;;0.30;0.30;;;6.70;1.00;;;;;;5004247;28;20462;-74
2022/02/06 12:11:35;;;;;;;0.83;0.60;;;6.70;1.00;;;;;;5005779;28;20469;-75
2022/02/06 12:14:24;;;;;;;0.90;0.53;;;6.70;1.00;;;;;;5007613;28;20434;-75
2022/02/06 12:20:07;;;;;;;0.77;0.50;;;6.70;1.00;;;;;;5007687;28;20417;-75
2022/02/06 12:22:39;;;;;;;0.30;0.30;;;6.60;1.00;;;;;;5039666;28;20905;-75
2022/02/06 12:25:22;;;;;;;0.70;0.60;;;6.60;1.00;;;;;;5041075;28;20925;-75
2022/02/06 12:27:50;;;;;;;4.23;1.70;;;6.60;1.00;;;;;;5031255;28;20407;-74
2022/02/06 12:30:30;;;;;;;0.40;0.40;;;6.60;1.00;;;;;;5039893;28;20476;-74
2022/02/06 12:33:26;;;;;;;1.13;0.73;;;6.50;1.00;;;;;;5047223;28;20421;-74
2022/02/06 12:38:36;;;;;;;0.37;0.30;;;6.60;1.00;;;;;;5050800;28;20949;-73
2022/02/06 12:41:30;;;;;;;0.30;0.30;;;6.50;1.00;;;;;;5053470;28;20509;-74
2022/02/06 12:44:24;;;;;;;0.30;0.30;;;6.50;1.00;;;;;;5053945;28;20421;-75
2022/02/06 12:46:50;;;;;;;1.90;0.60;;;6.50;1.00;;;;;;5053954;28;20491;-75
2022/02/06 12:49:21;;;;;;;0.40;0.40;;;6.60;1.00;;;;;;5057539;28;20477;-75
2022/02/06 12:52:05;;;;;;;0.40;0.40;;;6.50;1.00;;;;;;5042407;28;20442;-75
2022/02/06 12:54:35;;;;;;;0.40;0.40;;;6.60;1.00;;;;;;5043957;28;20896;-75
2022/02/06 12:57:01;;;;;;;0.57;0.57;;;6.60;1.00;;;;;;5056645;28;20422;-74
2022/02/06 12:59:30;;;;;;;0.93;0.50;;;6.50;1.00;;;;;;5041423;28;20742;-74
2022/02/06 13:01:57;;;;;;;0.80;0.60;;;6.50;1.00;;;;;;5039812;28;20164;-75
2022/02/06 13:04:29;;;;;;;2.93;0.50;;;6.50;1.00;;;;;;5050770;28;20423;-75
2022/02/06 13:07:05;;;;;;;0.50;0.50;;;6.50;1.00;;;;;;5046739;28;20418;-75
2022/02/06 13:09:58;;;;;;;0.30;0.30;;;6.50;1.00;;;;;;5052367;28;20466;-74
2022/02/06 13:15:20;;;;;;;1.40;0.70;;;6.50;1.00;;;;;;5057259;28;20704;-75
2022/02/06 13:28:24;;;;;;;0.40;0.37;;;6.50;1.00;;;;;;5045700;28;20426;-73
2022/02/06 13:31:17;;;;;;;0.40;0.40;;;6.50;1.00;;;;;;5054462;28;20963;-73
2022/02/06 13:39:12;;;;;;;0.50;0.50;;;6.50;1.00;;;;;;5045985;28;20437;-73
2022/02/06 13:41:38;;;;;;;0.93;0.60;;;6.50;1.00;;;;;;5047236;28;20441;-74
2022/02/06 13:44:17;;;;;;;0.40;0.30;;;6.60;1.00;;;;;;5056680;28;20421;-76
2022/02/06 13:46:45;;;;;;;1.90;0.60;;;6.50;1.00;;;;;;5050373;28;20425;-75
2022/02/06 13:49:11;;;;;;;0.47;0.47;;;6.50;1.00;;;;;;5046424;28;20406;-75
2022/02/06 13:51:57;;;;;;;0.47;0.43;;;6.50;1.00;;;;;;5053794;28;20453;-75
2022/02/06 13:54:28;;;;;;;0.40;0.40;;;6.40;1.00;;;;;;5055051;28;20409;-75
2022/02/06 13:57:01;;;;;;;0.43;0.43;;;6.40;1.00;;;;;;5056123;28;20802;-76
2022/02/06 13:59:35;;;;;;;0.33;0.33;;;6.40;1.00;;;;;;5042972;28;20473;-76
2022/02/06 14:02:16;;;;;;;0.30;0.30;;;6.40;1.00;;;;;;5045013;28;20406;-75
2022/02/06 14:04:49;;;;;;;0.50;0.50;;;6.40;1.00;;;;;;5042910;28;20932;-75
2022/02/06 14:07:24;;;;;;;0.60;0.60;;;6.50;1.00;;;;;;5051418;28;20410;-75
2022/02/06 14:10:12;;;;;;;0.40;0.40;;;6.50;1.00;;;;;;5042687;28;20426;-75
2022/02/06 14:12:48;;;;;;;0.60;0.47;;;6.40;1.00;;;;;;5054678;28;20418;-74
2022/02/06 14:15:29;;;;;;;0.40;0.30;;;6.40;1.00;;;;;;5049350;28;20487;-75
2022/02/06 14:18:03;;;;;;;0.40;0.40;;;6.50;1.00;;;;;;5036002;28;20443;-76
2022/02/06 14:20:28;;;;;;;0.50;0.50;;;6.50;1.00;;;;;;5048917;28;20453;-75
2022/02/06 14:23:04;;;;;;;0.60;0.40;;;6.50;1.00;;;;;;5047378;28;20423;-75
2022/02/06 14:25:39;;;;;;;0.50;0.30;;;6.50;1.00;;;;;;5047580;28;20168;-77
2022/02/06 14:28:23;;;;;;;0.30;0.30;;;6.50;1.00;;;;;;5047428;28;20452;-74
2022/02/06 14:30:49;;;;;;;0.50;0.47;;;6.60;1.00;;;;;;5037394;28;20481;-73
2022/02/06 14:33:28;;;;;;;3.40;0.43;;;6.50;1.00;;;;;;5047829;28;20885;-74
2022/02/06 14:36:15;;;;;;;0.70;0.50;;;6.50;1.00;;;;;;5045193;28;20488;-73
2022/02/06 14:38:52;;;;;;;0.40;0.30;;;6.50;1.00;;;;;;5051805;28;20951;-74
2022/02/06 14:41:26;;;;;;;0.40;0.40;;;6.60;1.00;;;;;;5047773;28;20429;-74
2022/02/06 14:44:01;;;;;;;0.30;0.30;;;6.60;1.00;;;;;;5046821;28;20416;-74
2022/02/06 14:46:29;;;;;;;0.60;0.40;;;6.50;1.00;;;;;;5044632;28;20421;-75
2022/02/06 14:48:56;;;;;;;0.50;0.37;;;6.50;1.00;;;;;;5035335;28;20391;-75
2022/02/06 14:51:24;;;;;;;0.37;0.33;;;6.50;1.00;;;;;;5049572;28;20548;-76
2022/02/06 14:53:58;;;;;;;0.30;0.30;;;6.50;1.00;;;;;;5043781;28;20426;-75
2022/02/06 14:56:30;;;;;;;0.30;0.30;;;6.50;1.00;;;;;;5041511;28;20501;-75
2022/02/06 14:59:04;;;;;;;0.50;0.43;;;6.60;1.00;;;;;;5053835;28;20456;-75
2022/02/06 15:01:35;;;;;;;0.30;0.30;;;6.60;1.00;;;;;;5054541;28;20497;-75
2022/02/06 15:04:13;;;;;;;0.80;0.60;;;6.60;1.00;;;;;;5042461;28;20414;-76
2022/02/06 15:06:41;;;;;;;0.40;0.40;;;6.60;1.00;;;;;;5037472;28;20440;-76
2022/02/06 15:09:10;;;;;;;2.97;0.40;;;6.50;1.00;;;;;;5036938;28;20419;-75
2022/02/06 15:11:40;;;;;;;0.30;0.30;;;6.60;1.00;;;;;;5051952;28;20545;-76
2022/02/06 15:14:06;;;;;;;0.37;0.37;;;6.60;1.00;;;;;;5039987;28;20426;-74
2022/02/06 15:16:36;;;;;;;0.40;0.40;;;6.60;1.00;;;;;;5052266;28;20513;-73
2022/02/06 15:19:13;;;;;;;0.40;0.40;;;6.50;1.00;;;;;;5047538;28;20575;-73
2022/02/06 15:21:39;;;;;;;0.37;0.37;;;6.50;1.00;;;;;;5043214;28;20418;-73
2022/02/06 15:24:05;;;;;;;0.40;0.30;;;;;;;;;;5045703;28;20839;-73
2022/02/06 15:26:31;;;;;;;0.40;0.40;;;6.50;1.00;;;;;;5050956;28;20501;-74
2022/02/06 15:28:57;;;;;;;0.40;0.40;;;6.50;1.00;;;;;;5034802;28;20527;-74
2022/02/06 15:31:23;;;;;;;0.37;0.30;;;6.50;1.00;;;;;;5040379;28;20215;-74
2022/02/06 15:33:48;;;;;;;0.30;0.30;;;6.40;1.00;;;;;;5046559;28;20172;-74
2022/02/06 15:36:16;;;;;;;2.00;1.00;;;6.40;1.00;;;;;;5033329;28;20188;-73
2022/02/06 15:38:48;;;;;;;0.80;0.40;;;6.40;1.00;;;;;;5039917;28;20183;-74
2022/02/06 15:41:15;;;;;;;2.40;0.80;;;6.30;1.00;;;;;;5036486;28;20426;-73
2022/02/06 15:43:41;;;;;;;0.77;0.40;;;6.30;1.00;;;;;;5049412;28;20437;-76
2022/02/06 15:46:08;;;;;;;0.30;0.30;;;6.30;1.00;;;;;;5059989;28;20803;-77
2022/02/06 15:49:04;;;;;;;0.50;0.50;;;6.40;1.00;;;;;;5053482;28;20429;-78
2022/02/06 15:51:52;;;;;;;0.60;0.57;;;6.40;1.00;;;;;;5040421;28;20203;-75
2022/02/06 15:54:18;;;;;;;0.30;0.30;;;6.30;1.00;;;;;;5041231;28;20410;-76
2022/02/06 15:56:48;;;;;;;0.30;0.30;;;6.30;1.00;;;;;;5047739;28;20410;-76
2022/02/06 15:59:23;;;;;;;2.87;0.50;;;6.40;1.00;;;;;;5053593;28;20744;-77
2022/02/06 16:01:50;;;;;;;1.90;0.40;;;6.40;1.00;;;;;;5042225;28;20422;-75
2022/02/06 16:04:16;;;;;;;0.50;0.50;;;6.40;1.00;;;;;;5037790;28;20431;-75
2022/02/06 16:06:52;;;;;;;0.30;0.30;;;6.50;1.00;;;;;;5042909;28;20418;-75
2022/02/06 16:09:30;;;;;;;0.50;0.40;;;6.50;1.00;;;;;;5053866;28;20496;-75
2022/02/06 16:12:16;;;;;;;0.47;0.43;;;6.50;1.00;;;;;;5040743;28;20470;-76
2022/02/06 16:14:42;;;;;;;0.40;0.40;;;6.50;1.00;;;;;;5039577;28;20409;-75